Main page
METAR-TAF:

METAR-TAF

Airports :

Waterford, Ireland

Waterford Airport

latitude: 52-11-14N, longitude: 7-05-13W, elevation: 36 m

Current weather observation

The report was made 4 hours and 46 minutes ago, at 19:30 UTC
Wind 10 kt from the Southwest, varying between South and West/Southwest
Temperature 14°C
Humidity 100%
Pressure 1018 hPa
Visibility 10 km or more
Broken clouds at a height of 400 ft

METAR: EIWF 191930Z 22010KT 190V250 9999 BKN004 14/14 Q1018

Time: 01:16 (00:16 UTC)

Forecast

The report was made 1 hour and 16 minutes ago, at 23:00 UTC
Forecast valid from 20 at 00 UTC to 20 at 09 UTC
Wind 12 kt from the South
Visibility: 4000 m
Broken clouds at a height of 400 ft
light drizzle
Temporary
from 20 at 00 UTC to 20 at 09 UTC
Visibility: 1200 m
Broken clouds at a height of 200 ft
Probability 40% :
Temporary
from 20 at 00 UTC to 20 at 09 UTC
Visibility: 0300 m
Overcast at a height of 100 ft
fog

TAF: EIWF 192300Z 2000/2009 19012KT 4000 -DZ BKN004 TEMPO 2000/2009 1200 BKN002 PROB40 TEMPO 2000/2009 0300 FG OVC001

Weather observations and forecasts of more than 4000 airports (METAR and TAF reports).

The available stations are represented by yellow and red dots on the map.

Hover mouse over dot to see the name of the station.

Then click to see weather observations and forecasts.

To change the map : click on the green buttons with a black cross to zoom in, on the green button with a dash to zoom out, or on the green arrows for adjacent maps.


METAR-TAF: